Battle Ground, Indiana
Current Conditions -  °F | °C
As of 10:54 PM on Friday 24 Oct 2014 (Local Time) from KLAF Reporting Station
Broken Clouds Broken Clouds  
Wind Chill: 12°   Ceiling: 9500
Heat Index: 12°   Visibility: 10mi
Dew Point: 10°   Wind: 3mph
Humidity: 89%   Direction: 240°WSW
Pressure: 30.01"   Gusts: NA
Location:  40.51°N, 86.84°W
Report Text: KLAF 250254Z AUTO 24003KT 10SM BKN095 12/10 A3001 RMK AO2 SLP161 T01170100 53004 TSNO
Loading
Personal Weather Stations






























Interactive Weather Map
Tropical Storm Tracking
New forecast layout! Learn more

10-Day Weather Forecast

Advertisements
Track Severe Weather on mobile